sensor_id;sensor_type;location;lat;lon;timestamp;pressure;altitude;pressure_sealevel;temperature;humidity
27864;BME280;15980;51.092;13.916;2023-02-04T00:02:59;98910.91;;;3.17;100.00
27864;BME280;15980;51.092;13.916;2023-02-04T00:13:00;98945.56;;;2.91;99.25
27864;BME280;15980;51.092;13.916;2023-02-04T00:23:00;98995.72;;;2.89;97.80
27864;BME280;15980;51.092;13.916;2023-02-04T00:33:01;99019.84;;;2.90;99.70
27864;BME280;15980;51.092;13.916;2023-02-04T00:43:01;99086.75;;;2.45;97.22
27864;BME280;15980;51.092;13.916;2023-02-04T00:53:01;99097.63;;;2.30;97.59
27864;BME280;15980;51.092;13.916;2023-02-04T01:03:01;99145.84;;;2.13;96.55
27864;BME280;15980;51.092;13.916;2023-02-04T01:13:02;99185.66;;;2.07;97.07
27864;BME280;15980;51.092;13.916;2023-02-04T01:23:02;99201.38;;;2.05;96.43
27864;BME280;15980;51.092;13.916;2023-02-04T01:33:02;99237.91;;;1.93;98.00
27864;BME280;15980;51.092;13.916;2023-02-04T01:43:03;99266.81;;;1.62;100.00
27864;BME280;15980;51.092;13.916;2023-02-04T01:53:04;99287.91;;;1.54;100.00
27864;BME280;15980;51.092;13.916;2023-02-04T02:03:05;99319.28;;;1.55;100.00
27864;BME280;15980;51.092;13.916;2023-02-04T02:13:07;99371.28;;;1.15;100.00
27864;BME280;15980;51.092;13.916;2023-02-04T02:23:47;99390.59;;;0.92;100.00
27864;BME280;15980;51.092;13.916;2023-02-04T02:33:48;99424.66;;;0.93;100.00
27864;BME280;15980;51.092;13.916;2023-02-04T02:43:49;99455.75;;;0.96;100.00
27864;BME280;15980;51.092;13.916;2023-02-04T02:53:49;99490.59;;;0.97;100.00
27864;BME280;15980;51.092;13.916;2023-02-04T03:03:50;99509.63;;;0.80;100.00
27864;BME280;15980;51.092;13.916;2023-02-04T03:13:51;99537.00;;;0.89;100.00
27864;BME280;15980;51.092;13.916;2023-02-04T03:23:52;99585.22;;;1.02;100.00
27864;BME280;15980;51.092;13.916;2023-02-04T03:33:53;99611.22;;;1.08;100.00
27864;BME280;15980;51.092;13.916;2023-02-04T03:43:53;99655.66;;;0.69;99.60
27864;BME280;15980;51.092;13.916;2023-02-04T03:53:53;99696.59;;;0.60;98.65
27864;BME280;15980;51.092;13.916;2023-02-04T04:03:53;99720.22;;;0.48;100.00
27864;BME280;15980;51.092;13.916;2023-02-04T04:13:54;99756.75;;;0.56;98.84
27864;BME280;15980;51.092;13.916;2023-02-04T04:23:54;99789.41;;;0.54;97.73
27864;BME280;15980;51.092;13.916;2023-02-04T04:33:55;99822.25;;;0.46;96.21
27864;BME280;15980;51.092;13.916;2023-02-04T04:43:55;99847.69;;;0.50;93.64
27864;BME280;15980;51.092;13.916;2023-02-04T04:53:55;99877.72;;;0.54;94.31
27864;BME280;15980;51.092;13.916;2023-02-04T05:03:55;99907.66;;;0.52;93.17
27864;BME280;15980;51.092;13.916;2023-02-04T05:13:56;99920.91;;;0.54;93.55
27864;BME280;15980;51.092;13.916;2023-02-04T05:23:56;99940.28;;;0.34;93.51
27864;BME280;15980;51.092;13.916;2023-02-04T05:33:56;99957.59;;;0.21;94.20
27864;BME280;15980;51.092;13.916;2023-02-04T05:43:56;99985.72;;;0.25;94.78
27864;BME280;15980;51.092;13.916;2023-02-04T05:53:57;100002.25;;;0.29;95.00
27864;BME280;15980;51.092;13.916;2023-02-04T06:03:57;100041.69;;;0.02;93.11
27864;BME280;15980;51.092;13.916;2023-02-04T06:13:57;100069.34;;;0.09;93.53
27864;BME280;15980;51.092;13.916;2023-02-04T06:23:58;100096.59;;;-0.16;92.63
27864;BME280;15980;51.092;13.916;2023-02-04T06:33:58;100121.69;;;-0.27;93.32
27864;BME280;15980;51.092;13.916;2023-02-04T06:43:58;100135.84;;;-0.44;93.47
27864;BME280;15980;51.092;13.916;2023-02-04T06:53:59;100152.59;;;-0.53;93.74
27864;BME280;15980;51.092;13.916;2023-02-04T07:03:59;100182.72;;;-0.56;93.97
27864;BME280;15980;51.092;13.916;2023-02-04T07:14:00;100203.25;;;-0.55;94.77
27864;BME280;15980;51.092;13.916;2023-02-04T07:24:00;100214.03;;;-0.55;96.21
27864;BME280;15980;51.092;13.916;2023-02-04T07:34:00;100225.16;;;-0.52;96.58
27864;BME280;15980;51.092;13.916;2023-02-04T07:44:01;100223.19;;;-0.45;96.43
27864;BME280;15980;51.092;13.916;2023-02-04T07:54:01;100237.19;;;-0.36;96.45
27864;BME280;15980;51.092;13.916;2023-02-04T08:04:02;100245.28;;;-0.24;96.95
27864;BME280;15980;51.092;13.916;2023-02-04T08:14:02;100272.44;;;0.16;96.12
27864;BME280;15980;51.092;13.916;2023-02-04T08:24:02;100299.44;;;0.39;96.24
27864;BME280;15980;51.092;13.916;2023-02-04T08:34:04;100323.75;;;0.39;94.97
27864;BME280;15980;51.092;13.916;2023-02-04T08:44:04;100329.53;;;0.54;94.03
27864;BME280;15980;51.092;13.916;2023-02-04T08:54:05;100342.53;;;0.81;93.12
27864;BME280;15980;51.092;13.916;2023-02-04T09:04:05;100359.59;;;0.93;92.93
27864;BME280;15980;51.092;13.916;2023-02-04T09:14:05;100384.38;;;1.02;92.00
27864;BME280;15980;51.092;13.916;2023-02-04T09:24:06;100408.13;;;1.00;93.16
27864;BME280;15980;51.092;13.916;2023-02-04T09:34:06;100414.44;;;1.17;92.13
27864;BME280;15980;51.092;13.916;2023-02-04T09:44:13;100436.06;;;1.40;91.50
27864;BME280;15980;51.092;13.916;2023-02-04T09:54:17;100440.97;;;1.55;90.50
27864;BME280;15980;51.092;13.916;2023-02-04T10:04:18;100469.25;;;1.87;89.20
27864;BME280;15980;51.092;13.916;2023-02-04T10:14:21;100474.31;;;1.84;87.30
27864;BME280;15980;51.092;13.916;2023-02-04T10:24:23;100472.44;;;2.13;88.34
27864;BME280;15980;51.092;13.916;2023-02-04T10:34:38;100476.13;;;2.07;86.43
27864;BME280;15980;51.092;13.916;2023-02-04T10:44:45;100467.59;;;1.86;87.87
27864;BME280;15980;51.092;13.916;2023-02-04T10:54:47;100490.47;;;2.19;85.66
27864;BME280;15980;51.092;13.916;2023-02-04T11:04:47;100489.06;;;2.05;84.74
27864;BME280;15980;51.092;13.916;2023-02-04T11:14:56;100487.47;;;2.49;87.28
27864;BME280;15980;51.092;13.916;2023-02-04T11:24:56;100488.78;;;2.46;86.60
27864;BME280;15980;51.092;13.916;2023-02-04T11:55:14;100509.38;;;2.31;78.09
27864;BME280;15980;51.092;13.916;2023-02-04T12:05:18;100509.94;;;2.61;83.00
27864;BME280;15980;51.092;13.916;2023-02-04T12:15:33;100526.72;;;2.46;83.00
27864;BME280;15980;51.092;13.916;2023-02-04T12:25:34;100511.97;;;2.54;83.12
27864;BME280;15980;51.092;13.916;2023-02-04T12:35:34;100511.63;;;2.96;83.39
27864;BME280;15980;51.092;13.916;2023-02-04T12:45:35;100523.22;;;3.08;76.97
27864;BME280;15980;51.092;13.916;2023-02-04T12:55:35;100517.72;;;3.20;76.42
27864;BME280;15980;51.092;13.916;2023-02-04T13:05:35;100524.53;;;3.22;74.12
27864;BME280;15980;51.092;13.916;2023-02-04T13:15:36;100539.69;;;2.73;72.11
27864;BME280;15980;51.092;13.916;2023-02-04T13:25:36;100556.69;;;2.68;73.06
27864;BME280;15980;51.092;13.916;2023-02-04T13:35:36;100562.69;;;3.15;73.02
27864;BME280;15980;51.092;13.916;2023-02-04T13:45:37;100562.34;;;3.12;71.88
27864;BME280;15980;51.092;13.916;2023-02-04T13:55:37;100576.47;;;2.40;74.04
27864;BME280;15980;51.092;13.916;2023-02-04T14:05:37;100577.16;;;1.96;73.23
27864;BME280;15980;51.092;13.916;2023-02-04T14:15:37;100572.78;;;2.06;75.81
27864;BME280;15980;51.092;13.916;2023-02-04T14:25:38;100591.25;;;1.27;79.92
27864;BME280;15980;51.092;13.916;2023-02-04T14:35:38;100582.81;;;1.36;81.97
27864;BME280;15980;51.092;13.916;2023-02-04T14:45:39;100572.78;;;1.24;82.72
27864;BME280;15980;51.092;13.916;2023-02-04T14:55:40;100569.16;;;1.31;83.35
27864;BME280;15980;51.092;13.916;2023-02-04T15:05:40;100574.34;;;1.67;82.18
27864;BME280;15980;51.092;13.916;2023-02-04T15:15:40;100577.16;;;1.72;80.84
27864;BME280;15980;51.092;13.916;2023-02-04T15:25:41;100578.47;;;1.81;80.66
27864;BME280;15980;51.092;13.916;2023-02-04T15:35:41;100574.81;;;1.41;80.04
27864;BME280;15980;51.092;13.916;2023-02-04T15:45:42;100583.94;;;1.16;80.03
27864;BME280;15980;51.092;13.916;2023-02-04T15:55:42;100594.25;;;0.96;80.65
27864;BME280;15980;51.092;13.916;2023-02-04T16:05:43;100596.22;;;0.89;81.09
27864;BME280;15980;51.092;13.916;2023-02-04T16:15:43;100603.34;;;0.83;82.15
27864;BME280;15980;51.092;13.916;2023-02-04T16:25:43;100614.38;;;0.82;81.57
27864;BME280;15980;51.092;13.916;2023-02-04T16:36:00;100626.81;;;0.71;81.71
27864;BME280;15980;51.092;13.916;2023-02-04T16:46:02;100625.25;;;0.63;80.77
27864;BME280;15980;51.092;13.916;2023-02-04T16:56:02;100641.78;;;0.55;80.77
27864;BME280;15980;51.092;13.916;2023-02-04T17:06:03;100653.03;;;0.52;80.95
27864;BME280;15980;51.092;13.916;2023-02-04T17:16:03;100652.06;;;0.47;80.78
27864;BME280;15980;51.092;13.916;2023-02-04T17:26:04;100659.94;;;0.30;80.99
27864;BME280;15980;51.092;13.916;2023-02-04T17:36:04;100665.31;;;0.12;81.94
27864;BME280;15980;51.092;13.916;2023-02-04T17:46:05;100669.00;;;0.17;82.02
27864;BME280;15980;51.092;13.916;2023-02-04T17:56:09;100661.13;;;0.16;82.19
27864;BME280;15980;51.092;13.916;2023-02-04T18:06:30;100668.28;;;-0.15;82.72
27864;BME280;15980;51.092;13.916;2023-02-04T18:16:32;100685.53;;;-0.41;84.05
27864;BME280;15980;51.092;13.916;2023-02-04T18:26:33;100673.72;;;-0.46;84.19
27864;BME280;15980;51.092;13.916;2023-02-04T18:36:34;100673.47;;;-0.38;83.95
27864;BME280;15980;51.092;13.916;2023-02-04T18:46:36;100659.91;;;-0.56;84.08
27864;BME280;15980;51.092;13.916;2023-02-04T18:56:42;100659.47;;;-0.53;82.69
27864;BME280;15980;51.092;13.916;2023-02-04T19:06:42;100673.31;;;-0.75;84.73
27864;BME280;15980;51.092;13.916;2023-02-04T19:16:44;100688.72;;;-0.88;85.94
27864;BME280;15980;51.092;13.916;2023-02-04T19:26:58;100690.59;;;-0.82;85.79
27864;BME280;15980;51.092;13.916;2023-02-04T19:36:58;100702.81;;;-0.80;86.23
27864;BME280;15980;51.092;13.916;2023-02-04T19:57:24;100737.75;;;-1.05;82.41
27864;BME280;15980;51.092;13.916;2023-02-04T20:07:26;100736.00;;;-0.86;80.21
27864;BME280;15980;51.092;13.916;2023-02-04T20:17:39;100747.47;;;-1.04;77.86
27864;BME280;15980;51.092;13.916;2023-02-04T20:27:40;100759.38;;;-1.24;76.44
27864;BME280;15980;51.092;13.916;2023-02-04T20:37:41;100778.88;;;-1.42;76.72
27864;BME280;15980;51.092;13.916;2023-02-04T20:47:42;100786.53;;;-1.33;74.17
27864;BME280;15980;51.092;13.916;2023-02-04T20:57:42;100795.22;;;-1.31;73.95
27864;BME280;15980;51.092;13.916;2023-02-04T21:07:42;100821.53;;;-1.26;74.71
27864;BME280;15980;51.092;13.916;2023-02-04T21:17:43;100815.13;;;-1.45;75.13
27864;BME280;15980;51.092;13.916;2023-02-04T21:27:43;100820.97;;;-1.54;75.66
27864;BME280;15980;51.092;13.916;2023-02-04T21:37:43;100849.50;;;-1.40;74.76
27864;BME280;15980;51.092;13.916;2023-02-04T21:47:44;100844.94;;;-1.33;74.54
27864;BME280;15980;51.092;13.916;2023-02-04T21:57:45;100833.97;;;-1.45;73.73
27864;BME280;15980;51.092;13.916;2023-02-04T22:07:46;100831.72;;;-1.54;74.28
27864;BME280;15980;51.092;13.916;2023-02-04T22:17:47;100848.50;;;-1.72;75.25
27864;BME280;15980;51.092;13.916;2023-02-04T22:27:47;100852.84;;;-1.65;74.63
27864;BME280;15980;51.092;13.916;2023-02-04T22:37:48;100852.63;;;-1.90;72.64
27864;BME280;15980;51.092;13.916;2023-02-04T22:47:48;100866.47;;;-2.12;73.07
27864;BME280;15980;51.092;13.916;2023-02-04T22:57:48;100860.22;;;-2.33;74.45
27864;BME280;15980;51.092;13.916;2023-02-04T23:07:49;100860.56;;;-2.56;75.03
27864;BME280;15980;51.092;13.916;2023-02-04T23:17:49;100866.47;;;-2.73;76.36
27864;BME280;15980;51.092;13.916;2023-02-04T23:27:50;100866.56;;;-3.01;77.36
27864;BME280;15980;51.092;13.916;2023-02-04T23:37:50;100873.44;;;-3.27;77.88
27864;BME280;15980;51.092;13.916;2023-02-04T23:47:50;100873.66;;;-3.50;80.91
27864;BME280;15980;51.092;13.916;2023-02-04T23:57:51;100872.06;;;-3.72;81.69
